sensor_id;sensor_type;location;lat;lon;timestamp;P1;durP1;ratioP1;P2;durP2;ratioP2
77736;SDS011;66903;59.926;30.404;2023-08-08T00:01:04;3.95;;;1.70;;
77736;SDS011;66903;59.926;30.404;2023-08-08T00:06:04;4.57;;;1.90;;
77736;SDS011;66903;59.926;30.404;2023-08-08T00:11:05;3.65;;;1.60;;
77736;SDS011;66903;59.926;30.404;2023-08-08T00:16:06;4.22;;;1.80;;
77736;SDS011;66903;59.926;30.404;2023-08-08T00:21:07;3.90;;;2.00;;
77736;SDS011;66903;59.926;30.404;2023-08-08T00:26:07;4.82;;;1.75;;
77736;SDS011;66903;59.926;30.404;2023-08-08T00:31:08;3.40;;;1.73;;
77736;SDS011;66903;59.926;30.404;2023-08-08T00:36:08;5.70;;;1.90;;
77736;SDS011;66903;59.926;30.404;2023-08-08T00:41:09;4.53;;;1.98;;
77736;SDS011;66903;59.926;30.404;2023-08-08T00:46:10;4.95;;;2.00;;
77736;SDS011;66903;59.926;30.404;2023-08-08T00:51:11;3.63;;;1.83;;
77736;SDS011;66903;59.926;30.404;2023-08-08T00:56:13;4.20;;;2.28;;
77736;SDS011;66903;59.926;30.404;2023-08-08T01:01:14;3.97;;;1.70;;
77736;SDS011;66903;59.926;30.404;2023-08-08T01:11:27;3.97;;;2.22;;
77736;SDS011;66903;59.926;30.404;2023-08-08T01:16:30;4.78;;;1.80;;
77736;SDS011;66903;59.926;30.404;2023-08-08T01:21:31;4.72;;;2.33;;
77736;SDS011;66903;59.926;30.404;2023-08-08T01:26:36;3.90;;;1.83;;
77736;SDS011;66903;59.926;30.404;2023-08-08T01:31:37;3.78;;;1.80;;
77736;SDS011;66903;59.926;30.404;2023-08-08T01:42:43;3.97;;;1.90;;
77736;SDS011;66903;59.926;30.404;2023-08-08T01:47:49;3.35;;;1.52;;
77736;SDS011;66903;59.926;30.404;2023-08-08T01:52:50;4.63;;;1.90;;
77736;SDS011;66903;59.926;30.404;2023-08-08T01:57:51;4.15;;;2.08;;
77736;SDS011;66903;59.926;30.404;2023-08-08T02:02:52;3.75;;;1.90;;
77736;SDS011;66903;59.926;30.404;2023-08-08T02:07:52;3.78;;;1.98;;
77736;SDS011;66903;59.926;30.404;2023-08-08T02:12:53;3.40;;;1.90;;
77736;SDS011;66903;59.926;30.404;2023-08-08T02:17:53;5.40;;;2.22;;
77736;SDS011;66903;59.926;30.404;2023-08-08T02:22:54;3.58;;;1.77;;
77736;SDS011;66903;59.926;30.404;2023-08-08T02:27:54;5.05;;;2.03;;
77736;SDS011;66903;59.926;30.404;2023-08-08T02:32:55;3.97;;;1.92;;
77736;SDS011;66903;59.926;30.404;2023-08-08T02:37:56;4.45;;;2.00;;
77736;SDS011;66903;59.926;30.404;2023-08-08T02:42:56;5.97;;;2.15;;
77736;SDS011;66903;59.926;30.404;2023-08-08T02:47:57;4.75;;;2.00;;
77736;SDS011;66903;59.926;30.404;2023-08-08T02:52:58;5.28;;;2.20;;
77736;SDS011;66903;59.926;30.404;2023-08-08T02:57:59;3.97;;;1.85;;
77736;SDS011;66903;59.926;30.404;2023-08-08T03:02:59;3.70;;;1.75;;
77736;SDS011;66903;59.926;30.404;2023-08-08T03:08:00;3.90;;;2.00;;
77736;SDS011;66903;59.926;30.404;2023-08-08T03:13:00;4.07;;;2.10;;
77736;SDS011;66903;59.926;30.404;2023-08-08T03:18:01;3.80;;;2.03;;
77736;SDS011;66903;59.926;30.404;2023-08-08T03:23:02;3.58;;;1.90;;
77736;SDS011;66903;59.926;30.404;2023-08-08T03:28:02;4.25;;;1.85;;
77736;SDS011;66903;59.926;30.404;2023-08-08T03:33:03;4.10;;;2.00;;
77736;SDS011;66903;59.926;30.404;2023-08-08T03:38:04;7.72;;;2.15;;
77736;SDS011;66903;59.926;30.404;2023-08-08T03:43:05;4.60;;;2.25;;
77736;SDS011;66903;59.926;30.404;2023-08-08T03:48:06;3.97;;;1.98;;
77736;SDS011;66903;59.926;30.404;2023-08-08T03:53:06;4.05;;;2.10;;
77736;SDS011;66903;59.926;30.404;2023-08-08T03:58:07;4.40;;;1.70;;
77736;SDS011;66903;59.926;30.404;2023-08-08T04:03:07;4.70;;;2.03;;
77736;SDS011;66903;59.926;30.404;2023-08-08T04:08:08;3.75;;;1.80;;
77736;SDS011;66903;59.926;30.404;2023-08-08T04:13:09;3.67;;;1.90;;
77736;SDS011;66903;59.926;30.404;2023-08-08T04:18:10;3.70;;;2.00;;
77736;SDS011;66903;59.926;30.404;2023-08-08T04:23:10;3.85;;;1.95;;
77736;SDS011;66903;59.926;30.404;2023-08-08T04:28:11;4.65;;;1.77;;
77736;SDS011;66903;59.926;30.404;2023-08-08T04:33:11;4.20;;;1.77;;
77736;SDS011;66903;59.926;30.404;2023-08-08T04:38:13;6.93;;;1.95;;
77736;SDS011;66903;59.926;30.404;2023-08-08T04:43:15;5.07;;;1.88;;
77736;SDS011;66903;59.926;30.404;2023-08-08T04:48:16;5.25;;;2.35;;
77736;SDS011;66903;59.926;30.404;2023-08-08T04:53:16;4.40;;;2.10;;
77736;SDS011;66903;59.926;30.404;2023-08-08T04:58:17;4.35;;;1.98;;
77736;SDS011;66903;59.926;30.404;2023-08-08T05:03:17;3.70;;;2.00;;
77736;SDS011;66903;59.926;30.404;2023-08-08T05:08:18;4.25;;;2.00;;
77736;SDS011;66903;59.926;30.404;2023-08-08T05:13:20;6.97;;;2.50;;
77736;SDS011;66903;59.926;30.404;2023-08-08T05:18:20;3.95;;;2.03;;
77736;SDS011;66903;59.926;30.404;2023-08-08T05:23:21;5.80;;;2.00;;
77736;SDS011;66903;59.926;30.404;2023-08-08T05:28:22;6.18;;;2.40;;
77736;SDS011;66903;59.926;30.404;2023-08-08T05:33:22;5.38;;;2.50;;
77736;SDS011;66903;59.926;30.404;2023-08-08T05:38:23;5.05;;;2.80;;
77736;SDS011;66903;59.926;30.404;2023-08-08T05:43:23;8.23;;;2.92;;
77736;SDS011;66903;59.926;30.404;2023-08-08T05:48:24;6.20;;;2.38;;
77736;SDS011;66903;59.926;30.404;2023-08-08T05:53:24;4.07;;;2.08;;
77736;SDS011;66903;59.926;30.404;2023-08-08T05:58:25;6.18;;;2.40;;
77736;SDS011;66903;59.926;30.404;2023-08-08T06:03:26;5.03;;;2.00;;
77736;SDS011;66903;59.926;30.404;2023-08-08T06:08:27;6.80;;;2.20;;
77736;SDS011;66903;59.926;30.404;2023-08-08T06:13:28;5.68;;;2.35;;
77736;SDS011;66903;59.926;30.404;2023-08-08T06:18:28;5.40;;;2.50;;
77736;SDS011;66903;59.926;30.404;2023-08-08T06:23:29;4.60;;;2.70;;
77736;SDS011;66903;59.926;30.404;2023-08-08T06:28:29;4.88;;;2.40;;
77736;SDS011;66903;59.926;30.404;2023-08-08T06:33:30;4.10;;;1.98;;
77736;SDS011;66903;59.926;30.404;2023-08-08T06:38:31;4.97;;;2.50;;
77736;SDS011;66903;59.926;30.404;2023-08-08T06:43:34;5.15;;;2.33;;
77736;SDS011;66903;59.926;30.404;2023-08-08T06:48:35;5.63;;;2.88;;
77736;SDS011;66903;59.926;30.404;2023-08-08T06:53:35;4.47;;;2.53;;
77736;SDS011;66903;59.926;30.404;2023-08-08T06:58:36;4.97;;;2.90;;
77736;SDS011;66903;59.926;30.404;2023-08-08T07:03:36;9.70;;;2.90;;
77736;SDS011;66903;59.926;30.404;2023-08-08T07:08:37;4.72;;;2.75;;
77736;SDS011;66903;59.926;30.404;2023-08-08T07:13:39;5.50;;;2.40;;
77736;SDS011;66903;59.926;30.404;2023-08-08T07:18:39;5.78;;;2.80;;
77736;SDS011;66903;59.926;30.404;2023-08-08T07:23:40;6.90;;;2.97;;
77736;SDS011;66903;59.926;30.404;2023-08-08T07:28:40;4.55;;;2.67;;
77736;SDS011;66903;59.926;30.404;2023-08-08T07:33:41;4.78;;;2.67;;
77736;SDS011;66903;59.926;30.404;2023-08-08T07:38:42;6.07;;;2.60;;
77736;SDS011;66903;59.926;30.404;2023-08-08T07:43:42;4.63;;;2.63;;
77736;SDS011;66903;59.926;30.404;2023-08-08T07:48:43;6.18;;;2.55;;
77736;SDS011;66903;59.926;30.404;2023-08-08T07:53:43;4.70;;;2.50;;
77736;SDS011;66903;59.926;30.404;2023-08-08T07:58:44;4.47;;;2.47;;
77736;SDS011;66903;59.926;30.404;2023-08-08T08:03:45;5.68;;;2.47;;
77736;SDS011;66903;59.926;30.404;2023-08-08T08:08:45;4.95;;;2.55;;
77736;SDS011;66903;59.926;30.404;2023-08-08T08:13:46;5.32;;;2.53;;
77736;SDS011;66903;59.926;30.404;2023-08-08T08:18:46;4.40;;;2.00;;
77736;SDS011;66903;59.926;30.404;2023-08-08T08:23:47;4.97;;;2.05;;
77736;SDS011;66903;59.926;30.404;2023-08-08T08:28:48;4.22;;;2.25;;
77736;SDS011;66903;59.926;30.404;2023-08-08T08:33:48;6.15;;;2.15;;
77736;SDS011;66903;59.926;30.404;2023-08-08T08:38:49;4.60;;;2.15;;
77736;SDS011;66903;59.926;30.404;2023-08-08T08:43:50;5.20;;;2.78;;
77736;SDS011;66903;59.926;30.404;2023-08-08T08:48:50;5.82;;;1.60;;
77736;SDS011;66903;59.926;30.404;2023-08-08T08:53:52;4.13;;;1.80;;
77736;SDS011;66903;59.926;30.404;2023-08-08T08:58:52;3.80;;;1.70;;
77736;SDS011;66903;59.926;30.404;2023-08-08T09:03:53;4.28;;;1.60;;
77736;SDS011;66903;59.926;30.404;2023-08-08T09:08:53;3.33;;;1.42;;
77736;SDS011;66903;59.926;30.404;2023-08-08T09:13:54;3.42;;;1.30;;
77736;SDS011;66903;59.926;30.404;2023-08-08T09:18:55;3.05;;;1.10;;
77736;SDS011;66903;59.926;30.404;2023-08-08T09:23:55;2.67;;;1.10;;
77736;SDS011;66903;59.926;30.404;2023-08-08T09:28:56;2.78;;;1.05;;
77736;SDS011;66903;59.926;30.404;2023-08-08T09:34:00;3.17;;;1.05;;
77736;SDS011;66903;59.926;30.404;2023-08-08T09:39:01;2.78;;;0.90;;
77736;SDS011;66903;59.926;30.404;2023-08-08T09:44:02;4.75;;;0.93;;
77736;SDS011;66903;59.926;30.404;2023-08-08T09:49:03;2.72;;;0.93;;
77736;SDS011;66903;59.926;30.404;2023-08-08T09:54:04;2.67;;;1.00;;
77736;SDS011;66903;59.926;30.404;2023-08-08T09:59:06;2.97;;;1.00;;
77736;SDS011;66903;59.926;30.404;2023-08-08T10:04:09;3.25;;;0.90;;
77736;SDS011;66903;59.926;30.404;2023-08-08T10:09:10;6.45;;;1.00;;
77736;SDS011;66903;59.926;30.404;2023-08-08T10:14:12;2.40;;;1.10;;
77736;SDS011;66903;59.926;30.404;2023-08-08T10:19:21;3.42;;;0.70;;
77736;SDS011;66903;59.926;30.404;2023-08-08T10:24:22;2.03;;;0.75;;
77736;SDS011;66903;59.926;30.404;2023-08-08T10:29:24;2.35;;;0.85;;
77736;SDS011;66903;59.926;30.404;2023-08-08T10:34:39;2.42;;;0.80;;
77736;SDS011;66903;59.926;30.404;2023-08-08T10:40:00;2.42;;;0.80;;
77736;SDS011;66903;59.926;30.404;2023-08-08T10:45:08;2.20;;;0.80;;
77736;SDS011;66903;59.926;30.404;2023-08-08T10:50:12;1.95;;;0.70;;
77736;SDS011;66903;59.926;30.404;2023-08-08T10:55:34;1.35;;;0.60;;
77736;SDS011;66903;59.926;30.404;2023-08-08T11:00:37;3.30;;;0.80;;
77736;SDS011;66903;59.926;30.404;2023-08-08T11:05:42;1.25;;;0.57;;
77736;SDS011;66903;59.926;30.404;2023-08-08T11:10:50;1.38;;;0.60;;
77736;SDS011;66903;59.926;30.404;2023-08-08T11:15:52;1.85;;;0.70;;
77736;SDS011;66903;59.926;30.404;2023-08-08T11:20:53;1.55;;;0.70;;
77736;SDS011;66903;59.926;30.404;2023-08-08T11:25:54;1.48;;;0.60;;
77736;SDS011;66903;59.926;30.404;2023-08-08T11:30:55;1.65;;;0.60;;
77736;SDS011;66903;59.926;30.404;2023-08-08T11:35:55;1.15;;;0.55;;
77736;SDS011;66903;59.926;30.404;2023-08-08T11:40:56;2.00;;;0.60;;
77736;SDS011;66903;59.926;30.404;2023-08-08T11:46:00;1.08;;;0.50;;
77736;SDS011;66903;59.926;30.404;2023-08-08T11:51:03;1.00;;;0.52;;
77736;SDS011;66903;59.926;30.404;2023-08-08T11:56:04;1.48;;;0.50;;
77736;SDS011;66903;59.926;30.404;2023-08-08T12:01:05;1.40;;;0.55;;
77736;SDS011;66903;59.926;30.404;2023-08-08T12:06:15;1.08;;;0.40;;
77736;SDS011;66903;59.926;30.404;2023-08-08T12:11:16;4.22;;;0.95;;
77736;SDS011;66903;59.926;30.404;2023-08-08T12:16:17;3.10;;;1.38;;
77736;SDS011;66903;59.926;30.404;2023-08-08T12:21:18;2.25;;;0.90;;
77736;SDS011;66903;59.926;30.404;2023-08-08T12:26:19;3.20;;;1.20;;
77736;SDS011;66903;59.926;30.404;2023-08-08T12:31:20;3.55;;;1.17;;
77736;SDS011;66903;59.926;30.404;2023-08-08T12:36:20;2.45;;;1.00;;
77736;SDS011;66903;59.926;30.404;2023-08-08T12:41:22;2.85;;;1.00;;
77736;SDS011;66903;59.926;30.404;2023-08-08T12:46:23;2.75;;;0.75;;
77736;SDS011;66903;59.926;30.404;2023-08-08T12:51:24;2.08;;;0.70;;
77736;SDS011;66903;59.926;30.404;2023-08-08T12:56:24;1.90;;;0.70;;
77736;SDS011;66903;59.926;30.404;2023-08-08T13:01:25;2.40;;;0.82;;
77736;SDS011;66903;59.926;30.404;2023-08-08T13:06:26;1.80;;;0.65;;
77736;SDS011;66903;59.926;30.404;2023-08-08T13:11:27;1.10;;;0.43;;
77736;SDS011;66903;59.926;30.404;2023-08-08T13:16:28;1.88;;;0.70;;
77736;SDS011;66903;59.926;30.404;2023-08-08T13:21:28;1.02;;;0.43;;
77736;SDS011;66903;59.926;30.404;2023-08-08T13:26:29;0.88;;;0.57;;
77736;SDS011;66903;59.926;30.404;2023-08-08T13:31:29;1.05;;;0.57;;
77736;SDS011;66903;59.926;30.404;2023-08-08T13:36:30;1.13;;;0.47;;
77736;SDS011;66903;59.926;30.404;2023-08-08T13:41:31;1.60;;;0.52;;
77736;SDS011;66903;59.926;30.404;2023-08-08T13:46:31;1.10;;;0.40;;
77736;SDS011;66903;59.926;30.404;2023-08-08T13:51:32;1.08;;;0.40;;
77736;SDS011;66903;59.926;30.404;2023-08-08T13:56:32;1.02;;;0.50;;
77736;SDS011;66903;59.926;30.404;2023-08-08T14:01:33;0.68;;;0.40;;
77736;SDS011;66903;59.926;30.404;2023-08-08T14:06:33;5.60;;;0.60;;
77736;SDS011;66903;59.926;30.404;2023-08-08T14:11:34;1.13;;;0.40;;
77736;SDS011;66903;59.926;30.404;2023-08-08T14:16:35;6.60;;;0.70;;
77736;SDS011;66903;59.926;30.404;2023-08-08T14:21:35;3.75;;;0.50;;
77736;SDS011;66903;59.926;30.404;2023-08-08T14:26:36;1.35;;;0.40;;
77736;SDS011;66903;59.926;30.404;2023-08-08T14:31:37;3.33;;;0.60;;
77736;SDS011;66903;59.926;30.404;2023-08-08T14:36:37;1.40;;;0.52;;
77736;SDS011;66903;59.926;30.404;2023-08-08T14:41:38;3.75;;;0.45;;
77736;SDS011;66903;59.926;30.404;2023-08-08T14:46:38;1.88;;;0.65;;
77736;SDS011;66903;59.926;30.404;2023-08-08T14:51:39;1.00;;;0.32;;
77736;SDS011;66903;59.926;30.404;2023-08-08T14:56:39;0.28;;;0.25;;
77736;SDS011;66903;59.926;30.404;2023-08-08T15:01:40;1.20;;;0.47;;
77736;SDS011;66903;59.926;30.404;2023-08-08T15:06:40;1.42;;;0.40;;
77736;SDS011;66903;59.926;30.404;2023-08-08T15:11:41;1.13;;;0.50;;
77736;SDS011;66903;59.926;30.404;2023-08-08T15:16:47;1.48;;;0.40;;
77736;SDS011;66903;59.926;30.404;2023-08-08T15:21:49;1.50;;;0.60;;
77736;SDS011;66903;59.926;30.404;2023-08-08T15:26:49;0.85;;;0.47;;
77736;SDS011;66903;59.926;30.404;2023-08-08T15:31:50;1.10;;;0.50;;
77736;SDS011;66903;59.926;30.404;2023-08-08T15:36:50;1.85;;;0.43;;
77736;SDS011;66903;59.926;30.404;2023-08-08T15:41:51;1.17;;;0.35;;
77736;SDS011;66903;59.926;30.404;2023-08-08T15:46:52;2.70;;;0.60;;
77736;SDS011;66903;59.926;30.404;2023-08-08T15:51:52;3.03;;;0.70;;
77736;SDS011;66903;59.926;30.404;2023-08-08T15:56:56;1.88;;;0.70;;
77736;SDS011;66903;59.926;30.404;2023-08-08T16:01:57;1.73;;;0.70;;
77736;SDS011;66903;59.926;30.404;2023-08-08T16:06:57;3.63;;;1.25;;
77736;SDS011;66903;59.926;30.404;2023-08-08T16:11:58;2.10;;;0.77;;
77736;SDS011;66903;59.926;30.404;2023-08-08T16:16:59;1.75;;;0.60;;
77736;SDS011;66903;59.926;30.404;2023-08-08T16:21:59;2.58;;;0.50;;
77736;SDS011;66903;59.926;30.404;2023-08-08T16:27:00;3.95;;;0.60;;
77736;SDS011;66903;59.926;30.404;2023-08-08T16:32:00;2.50;;;0.52;;
77736;SDS011;66903;59.926;30.404;2023-08-08T16:37:01;1.48;;;0.70;;
77736;SDS011;66903;59.926;30.404;2023-08-08T16:42:01;2.72;;;0.80;;
77736;SDS011;66903;59.926;30.404;2023-08-08T16:47:02;3.33;;;0.88;;
77736;SDS011;66903;59.926;30.404;2023-08-08T16:52:03;4.28;;;0.90;;
77736;SDS011;66903;59.926;30.404;2023-08-08T16:57:04;4.63;;;0.90;;
77736;SDS011;66903;59.926;30.404;2023-08-08T17:02:05;2.05;;;0.50;;
77736;SDS011;66903;59.926;30.404;2023-08-08T17:07:06;5.03;;;0.82;;
77736;SDS011;66903;59.926;30.404;2023-08-08T17:12:06;2.65;;;0.82;;
77736;SDS011;66903;59.926;30.404;2023-08-08T17:17:07;4.30;;;0.90;;
77736;SDS011;66903;59.926;30.404;2023-08-08T17:22:08;3.38;;;0.75;;
77736;SDS011;66903;59.926;30.404;2023-08-08T17:27:09;2.38;;;0.75;;
77736;SDS011;66903;59.926;30.404;2023-08-08T17:32:09;2.78;;;0.70;;
77736;SDS011;66903;59.926;30.404;2023-08-08T17:37:10;2.67;;;0.73;;
77736;SDS011;66903;59.926;30.404;2023-08-08T17:42:11;3.60;;;0.93;;
77736;SDS011;66903;59.926;30.404;2023-08-08T17:47:11;3.85;;;0.80;;
77736;SDS011;66903;59.926;30.404;2023-08-08T17:52:12;2.50;;;0.80;;
77736;SDS011;66903;59.926;30.404;2023-08-08T17:57:12;2.25;;;0.80;;
77736;SDS011;66903;59.926;30.404;2023-08-08T18:02:14;3.42;;;0.93;;
77736;SDS011;66903;59.926;30.404;2023-08-08T18:07:15;2.47;;;0.77;;
77736;SDS011;66903;59.926;30.404;2023-08-08T18:12:16;3.00;;;0.85;;
77736;SDS011;66903;59.926;30.404;2023-08-08T18:17:18;3.58;;;0.82;;
77736;SDS011;66903;59.926;30.404;2023-08-08T18:22:21;6.53;;;0.90;;
77736;SDS011;66903;59.926;30.404;2023-08-08T18:27:22;2.55;;;0.90;;
77736;SDS011;66903;59.926;30.404;2023-08-08T18:32:23;5.28;;;1.35;;
77736;SDS011;66903;59.926;30.404;2023-08-08T18:37:24;3.60;;;1.30;;
77736;SDS011;66903;59.926;30.404;2023-08-08T18:42:26;4.25;;;1.17;;
77736;SDS011;66903;59.926;30.404;2023-08-08T18:47:27;3.28;;;1.20;;
77736;SDS011;66903;59.926;30.404;2023-08-08T18:52:28;4.13;;;1.42;;
77736;SDS011;66903;59.926;30.404;2023-08-08T18:57:28;5.32;;;1.20;;
77736;SDS011;66903;59.926;30.404;2023-08-08T19:02:29;4.10;;;1.05;;
77736;SDS011;66903;59.926;30.404;2023-08-08T19:07:30;3.30;;;1.10;;
77736;SDS011;66903;59.926;30.404;2023-08-08T19:12:30;16.52;;;3.35;;
77736;SDS011;66903;59.926;30.404;2023-08-08T19:17:31;3.65;;;0.95;;
77736;SDS011;66903;59.926;30.404;2023-08-08T19:22:32;2.20;;;0.88;;
77736;SDS011;66903;59.926;30.404;2023-08-08T19:27:32;3.88;;;1.00;;
77736;SDS011;66903;59.926;30.404;2023-08-08T19:32:33;4.07;;;1.10;;
77736;SDS011;66903;59.926;30.404;2023-08-08T19:37:34;6.50;;;1.05;;
77736;SDS011;66903;59.926;30.404;2023-08-08T19:42:34;2.63;;;1.10;;
77736;SDS011;66903;59.926;30.404;2023-08-08T19:47:35;4.43;;;1.20;;
77736;SDS011;66903;59.926;30.404;2023-08-08T19:52:35;3.10;;;1.10;;
77736;SDS011;66903;59.926;30.404;2023-08-08T19:57:37;2.75;;;1.00;;
77736;SDS011;66903;59.926;30.404;2023-08-08T20:02:38;5.05;;;1.30;;
77736;SDS011;66903;59.926;30.404;2023-08-08T20:07:38;6.47;;;1.60;;
77736;SDS011;66903;59.926;30.404;2023-08-08T20:12:40;4.55;;;1.65;;
77736;SDS011;66903;59.926;30.404;2023-08-08T20:17:42;6.13;;;1.58;;
77736;SDS011;66903;59.926;30.404;2023-08-08T20:22:42;4.93;;;1.50;;
77736;SDS011;66903;59.926;30.404;2023-08-08T20:27:43;4.32;;;1.58;;
77736;SDS011;66903;59.926;30.404;2023-08-08T20:32:44;3.33;;;1.30;;
77736;SDS011;66903;59.926;30.404;2023-08-08T20:37:45;4.68;;;1.50;;
77736;SDS011;66903;59.926;30.404;2023-08-08T20:42:45;6.53;;;1.88;;
77736;SDS011;66903;59.926;30.404;2023-08-08T20:47:46;8.32;;;2.63;;
77736;SDS011;66903;59.926;30.404;2023-08-08T20:52:47;6.60;;;1.90;;
77736;SDS011;66903;59.926;30.404;2023-08-08T20:57:48;4.82;;;1.80;;
77736;SDS011;66903;59.926;30.404;2023-08-08T21:02:49;7.95;;;1.83;;
77736;SDS011;66903;59.926;30.404;2023-08-08T21:07:49;6.28;;;1.77;;
77736;SDS011;66903;59.926;30.404;2023-08-08T21:12:50;4.95;;;1.80;;
77736;SDS011;66903;59.926;30.404;2023-08-08T21:17:50;5.57;;;2.17;;
77736;SDS011;66903;59.926;30.404;2023-08-08T21:22:51;5.40;;;1.65;;
77736;SDS011;66903;59.926;30.404;2023-08-08T21:27:52;5.03;;;1.55;;
77736;SDS011;66903;59.926;30.404;2023-08-08T21:32:52;6.68;;;1.90;;
77736;SDS011;66903;59.926;30.404;2023-08-08T21:37:53;6.75;;;1.52;;
77736;SDS011;66903;59.926;30.404;2023-08-08T21:42:53;4.13;;;1.23;;
77736;SDS011;66903;59.926;30.404;2023-08-08T21:47:54;5.43;;;1.50;;
77736;SDS011;66903;59.926;30.404;2023-08-08T21:52:54;4.35;;;1.52;;
77736;SDS011;66903;59.926;30.404;2023-08-08T21:57:55;8.20;;;1.40;;
77736;SDS011;66903;59.926;30.404;2023-08-08T22:02:56;4.85;;;1.45;;
77736;SDS011;66903;59.926;30.404;2023-08-08T22:07:56;4.90;;;1.50;;
77736;SDS011;66903;59.926;30.404;2023-08-08T22:13:02;3.50;;;1.30;;
77736;SDS011;66903;59.926;30.404;2023-08-08T22:18:11;5.05;;;1.30;;
77736;SDS011;66903;59.926;30.404;2023-08-08T22:23:14;6.30;;;1.67;;
77736;SDS011;66903;59.926;30.404;2023-08-08T22:28:15;7.68;;;1.60;;
77736;SDS011;66903;59.926;30.404;2023-08-08T22:33:15;8.13;;;1.77;;
77736;SDS011;66903;59.926;30.404;2023-08-08T22:38:16;9.52;;;1.92;;
77736;SDS011;66903;59.926;30.404;2023-08-08T22:43:17;6.07;;;1.50;;
77736;SDS011;66903;59.926;30.404;2023-08-08T22:48:18;4.43;;;1.48;;
77736;SDS011;66903;59.926;30.404;2023-08-08T22:53:18;7.22;;;1.85;;
77736;SDS011;66903;59.926;30.404;2023-08-08T22:58:19;6.80;;;1.60;;
77736;SDS011;66903;59.926;30.404;2023-08-08T23:03:19;4.38;;;1.27;;
77736;SDS011;66903;59.926;30.404;2023-08-08T23:08:24;5.18;;;1.75;;
77736;SDS011;66903;59.926;30.404;2023-08-08T23:13:25;4.32;;;1.52;;
77736;SDS011;66903;59.926;30.404;2023-08-08T23:18:26;6.63;;;1.45;;
77736;SDS011;66903;59.926;30.404;2023-08-08T23:23:27;4.05;;;1.38;;
77736;SDS011;66903;59.926;30.404;2023-08-08T23:28:27;4.60;;;1.48;;
77736;SDS011;66903;59.926;30.404;2023-08-08T23:33:28;6.10;;;1.70;;
77736;SDS011;66903;59.926;30.404;2023-08-08T23:38:28;6.47;;;1.73;;
77736;SDS011;66903;59.926;30.404;2023-08-08T23:43:30;5.53;;;1.60;;
77736;SDS011;66903;59.926;30.404;2023-08-08T23:48:31;6.63;;;1.83;;
77736;SDS011;66903;59.926;30.404;2023-08-08T23:53:34;5.22;;;1.55;;
77736;SDS011;66903;59.926;30.404;2023-08-08T23:58:34;4.47;;;1.60;;
